Time;durP1;ratioP1;P1;durP2;ratioP2;P2;SDS_P1;SDS_P2;PMS_P1;PMS_P2;Temp;Humidity;BMP_temperature;BMP_pressure;BME280_temperature;BME280_humidity;BME280_pressure;Samples;Min_cycle;Max_cycle;Signal;HPM_P1;HPM_P2
2023/08/22 00:00:13;;;;;;;6.32;2.53;;;;;;;;;;2089543;28;20067;-78
2023/08/22 00:01:32;;;;;;;8.27;2.85;;;;;;;;;;2085370;28;20158;-79
2023/08/22 00:02:50;;;;;;;7.03;2.67;;;;;;;;;;2087089;28;20037;-78
2023/08/22 00:04:09;;;;;;;13.23;3.22;;;;;;;;;;2092491;28;20421;-78
2023/08/22 00:05:28;;;;;;;6.22;2.80;;;;;;;;;;2088963;28;20029;-78
2023/08/22 00:06:47;;;;;;;5.10;2.15;;;;;;;;;;2087252;28;20033;-79
2023/08/22 00:08:07;;;;;;;8.05;2.90;;;;;;;;;;2085070;28;20025;-79
2023/08/22 00:09:25;;;;;;;6.60;3.00;;;;;;;;;;2093580;28;20024;-79
2023/08/22 00:10:45;;;;;;;5.22;2.45;;;;;;;;;;2097264;28;20024;-79
2023/08/22 00:12:05;;;;;;;10.32;3.03;;;;;;;;;;2089240;28;20037;-78
2023/08/22 00:13:24;;;;;;;8.27;2.70;;;;;;;;;;2085218;28;20036;-78
2023/08/22 00:14:44;;;;;;;5.05;2.50;;;;;;;;;;2086148;28;20104;-79
2023/08/22 00:16:03;;;;;;;15.13;3.60;;;;;;;;;;2093989;28;20064;-79
2023/08/22 00:17:22;;;;;;;10.18;2.90;;;;;;;;;;2095472;28;20029;-78
2023/08/22 00:18:40;;;;;;;4.80;2.45;;;;;;;;;;2086867;28;20021;-79
2023/08/22 00:19:59;;;;;;;7.05;3.13;;;;;;;;;;2089291;28;20025;-79
2023/08/22 00:21:18;;;;;;;7.10;2.50;;;;;;;;;;2085400;28;20104;-78
2023/08/22 00:22:37;;;;;;;10.77;3.13;;;;;;;;;;2085643;28;20037;-79
2023/08/22 00:23:58;;;;;;;10.13;2.90;;;;;;;;;;2093326;28;20497;-79
2023/08/22 00:25:17;;;;;;;6.10;2.40;;;;;;;;;;2088785;28;20421;-78
2023/08/22 00:26:36;;;;;;;12.75;3.30;;;;;;;;;;2093565;28;20037;-79
2023/08/22 00:27:55;;;;;;;8.07;2.67;;;;;;;;;;2085451;28;20032;-80
2023/08/22 00:29:13;;;;;;;7.97;3.30;;;;;;;;;;2084774;28;20447;-80
2023/08/22 00:30:32;;;;;;;7.78;2.78;;;;;;;;;;2086099;28;20036;-78
2023/08/22 00:31:51;;;;;;;9.32;2.75;;;;;;;;;;2085183;28;20029;-79
2023/08/22 00:33:10;;;;;;;9.18;2.80;;;;;;;;;;2092021;28;20040;-78
2023/08/22 00:34:29;;;;;;;7.50;2.67;;;;;;;;;;2088502;28;20036;-79
2023/08/22 00:35:49;;;;;;;8.23;3.50;;;;;;;;;;2093832;28;20382;-78
2023/08/22 00:37:09;;;;;;;6.47;3.13;;;;;;;;;;2097089;28;20056;-79
2023/08/22 00:38:28;;;;;;;6.97;2.35;;;;;;;;;;2088730;28;20963;-79
2023/08/22 00:39:47;;;;;;;8.70;2.88;;;;;;;;;;2085769;28;20104;-80
2023/08/22 00:41:06;;;;;;;15.23;3.15;;;;;;;;;;2085773;28;20513;-78
2023/08/22 00:42:25;;;;;;;9.68;3.05;;;;;;;;;;2085234;28;20037;-78
2023/08/22 00:43:44;;;;;;;7.25;2.95;;;;;;;;;;2088446;28;20383;-78
2023/08/22 00:45:03;;;;;;;8.07;2.85;;;;;;;;;;2084167;28;20467;-78
2023/08/22 00:46:25;;;;;;;8.52;3.28;;;;;;;;;;2090156;28;20021;-78
2023/08/22 00:47:44;;;;;;;7.30;2.72;;;;;;;;;;2094747;28;20032;-78
2023/08/22 00:49:04;;;;;;;8.90;2.90;;;;;;;;;;2089042;28;20033;-79
2023/08/22 00:50:23;;;;;;;9.35;2.53;;;;;;;;;;2089153;28;20064;-79
2023/08/22 00:51:42;;;;;;;7.18;3.17;;;;;;;;;;2094834;28;20199;-78
2023/08/22 00:53:01;;;;;;;10.23;3.13;;;;;;;;;;2089157;28;20029;-79
2023/08/22 00:54:21;;;;;;;6.60;2.78;;;;;;;;;;2091680;28;20028;-78
2023/08/22 00:55:39;;;;;;;10.45;2.88;;;;;;;;;;2095587;28;20020;-79
2023/08/22 00:56:58;;;;;;;9.25;3.45;;;;;;;;;;2089184;28;20025;-78
2023/08/22 00:58:17;;;;;;;12.88;3.38;;;;;;;;;;2090066;28;20033;-78
2023/08/22 00:59:36;;;;;;;11.65;3.10;;;;;;;;;;2087731;28;20045;-79
2023/08/22 01:00:55;;;;;;;12.57;3.38;;;;;;;;;;2087579;28;20025;-78
2023/08/22 01:02:14;;;;;;;8.95;3.35;;;;;;;;;;2089363;28;20025;-79
2023/08/22 01:03:34;;;;;;;7.57;3.35;;;;;;;;;;2088576;28;20678;-78
2023/08/22 01:04:53;;;;;;;7.47;3.03;;;;;;;;;;2088885;28;21356;-77
2023/08/22 01:06:22;;;;;;;11.18;3.08;;;;;;;;;;2088154;28;20041;-79
2023/08/22 01:07:45;;;;;;;8.80;3.00;;;;;;;;;;2085376;28;20139;-79
2023/08/22 01:09:18;;;;;;;7.68;2.97;;;;;;;;;;2087461;28;20065;-79
2023/08/22 01:10:41;;;;;;;10.82;3.30;;;;;;;;;;2086110;28;20056;-79
2023/08/22 01:12:10;;;;;;;8.70;2.85;;;;;;;;;;2085256;28;20497;-79
2023/08/22 01:13:31;;;;;;;7.18;2.80;;;;;;;;;;2086508;28;20044;-79
2023/08/22 01:14:54;;;;;;;7.65;3.22;;;;;;;;;;2091584;28;20017;-80
2023/08/22 01:16:13;;;;;;;8.25;3.20;;;;;;;;;;2086331;28;20025;-79
2023/08/22 01:17:32;;;;;;;8.15;2.85;;;;;;;;;;2081965;28;20123;-79
2023/08/22 01:18:52;;;;;;;5.90;3.55;;;;;;;;;;2086159;28;20045;-78
2023/08/22 01:20:12;;;;;;;9.02;2.95;;;;;;;;;;2086748;28;20029;-80
2023/08/22 01:21:35;;;;;;;15.77;4.18;;;;;;;;;;2089408;28;20033;-79
2023/08/22 01:22:54;;;;;;;10.13;3.42;;;;;;;;;;2088484;28;20596;-78
2023/08/22 01:24:13;;;;;;;11.02;3.90;;;;;;;;;;2087471;28;20037;-78
2023/08/22 01:25:32;;;;;;;6.60;3.20;;;;;;;;;;2086441;28;20065;-79
2023/08/22 01:26:52;;;;;;;9.23;3.17;;;;;;;;;;2088407;28;20037;-78
2023/08/22 01:28:11;;;;;;;7.53;3.70;;;;;;;;;;2087401;28;20490;-78
2023/08/22 01:29:34;;;;;;;9.15;3.10;;;;;;;;;;2086670;28;20103;-78
2023/08/22 01:31:12;;;;;;;12.25;3.75;;;;;;;;;;2086536;28;20493;-79
2023/08/22 01:32:32;;;;;;;6.63;2.83;;;;;;;;;;2089405;28;20048;-79
2023/08/22 01:34:01;;;;;;;8.90;3.33;;;;;;;;;;2089217;28;20028;-81
2023/08/22 01:35:22;;;;;;;7.95;3.47;;;;;;;;;;2088083;28;20029;-79
2023/08/22 01:36:42;;;;;;;9.77;3.92;;;;;;;;;;2085040;28;20022;-79
2023/08/22 01:38:02;;;;;;;11.00;3.50;;;;;;;;;;2084724;28;20414;-80
2023/08/22 01:39:22;;;;;;;12.90;3.25;;;;;;;;;;2088754;28;20064;-79
2023/08/22 01:40:42;;;;;;;8.82;3.35;;;;;;;;;;2088553;28;20025;-79
2023/08/22 01:42:01;;;;;;;8.82;3.15;;;;;;;;;;2083803;28;20025;-79
2023/08/22 01:43:21;;;;;;;11.68;3.25;;;;;;;;;;2088724;28;20021;-77
2023/08/22 01:44:40;;;;;;;9.23;3.38;;;;;;;;;;2090914;28;20482;-77
2023/08/22 01:45:59;;;;;;;6.93;2.90;;;;;;;;;;2087903;28;20099;-78
2023/08/22 01:47:18;;;;;;;13.15;4.07;;;;;;;;;;2088365;28;20021;-78
2023/08/22 01:48:36;;;;;;;9.93;3.13;;;;;;;;;;2083985;28;20033;-77
2023/08/22 01:49:55;;;;;;;12.43;3.63;;;;;;;;;;2088703;28;20096;-77
2023/08/22 01:51:14;;;;;;;7.97;3.53;;;;;;;;;;2088351;28;20029;-78
2023/08/22 01:52:33;;;;;;;10.05;3.47;;;;;;;;;;2088201;28;20033;-79
2023/08/22 01:53:53;;;;;;;9.15;3.20;;;;;;;;;;2088285;28;20032;-79
2023/08/22 01:55:15;;;;;;;10.43;2.95;;;;;;;;;;2088377;28;20614;-78
2023/08/22 01:56:34;;;;;;;9.75;3.30;;;;;;;;;;2089401;28;20029;-78
2023/08/22 01:57:53;;;;;;;9.77;3.35;;;;;;;;;;2087716;28;20022;-78
2023/08/22 01:59:12;;;;;;;13.68;3.88;;;;;;;;;;2091817;28;20044;-80
2023/08/22 02:00:31;;;;;;;6.70;3.38;;;;;;;;;;2097626;28;20032;-78
2023/08/22 02:01:50;;;;;;;11.80;3.65;;;;;;;;;;2096289;28;20478;-79
2023/08/22 02:03:09;;;;;;;7.13;3.50;;;;;;;;;;2098186;28;20036;-77
2023/08/22 02:04:28;;;;;;;9.23;3.20;;;;;;;;;;2086535;28;20513;-77
2023/08/22 02:05:48;;;;;;;13.88;3.45;;;;;;;;;;2084637;28;20488;-78
2023/08/22 02:07:07;;;;;;;7.40;3.30;;;;;;;;;;2085820;28;20021;-78
2023/08/22 02:08:25;;;;;;;10.65;4.40;;;;;;;;;;2084274;28;20481;-78
2023/08/22 02:09:44;;;;;;;10.80;4.10;;;;;;;;;;2084979;28;20104;-78
2023/08/22 02:11:03;;;;;;;11.05;3.70;;;;;;;;;;2089296;28;20052;-78
2023/08/22 02:12:22;;;;;;;8.43;3.50;;;;;;;;;;2092693;28;20029;-78
2023/08/22 02:13:41;;;;;;;8.07;3.63;;;;;;;;;;2088847;28;20029;-78
2023/08/22 02:14:59;;;;;;;12.52;3.58;;;;;;;;;;2093606;28;20386;-78
2023/08/22 02:16:18;;;;;;;15.02;3.78;;;;;;;;;;2103593;28;20482;-80
2023/08/22 02:17:38;;;;;;;12.57;3.90;;;;;;;;;;2096827;28;20037;-81
2023/08/22 02:18:58;;;;;;;7.28;3.65;;;;;;;;;;2094428;28;20065;-81
2023/08/22 02:20:19;;;;;;;8.70;3.30;;;;;;;;;;2101437;28;20064;-79
2023/08/22 02:21:38;;;;;;;6.40;3.78;;;;;;;;;;2094990;28;20029;-80
2023/08/22 02:22:58;;;;;;;9.15;3.45;;;;;;;;;;2101045;28;20040;-81
2023/08/22 02:24:17;;;;;;;8.75;3.40;;;;;;;;;;2097027;28;20030;-79
2023/08/22 02:25:36;;;;;;;10.98;4.00;;;;;;;;;;2087222;28;20032;-77
2023/08/22 02:26:55;;;;;;;11.43;4.07;;;;;;;;;;2089658;28;20033;-79
2023/08/22 02:28:14;;;;;;;7.53;3.28;;;;;;;;;;2085301;28;20029;-81
2023/08/22 02:29:34;;;;;;;11.13;3.42;;;;;;;;;;2087769;28;20049;-80
2023/08/22 02:30:54;;;;;;;10.60;3.80;;;;;;;;;;2094265;28;20076;-78
2023/08/22 02:32:13;;;;;;;10.05;3.80;;;;;;;;;;2097918;28;20032;-78
2023/08/22 02:33:32;;;;;;;9.73;3.90;;;;;;;;;;2089069;28;20566;-79
2023/08/22 02:34:51;;;;;;;9.27;4.25;;;;;;;;;;2094092;28;20504;-79
2023/08/22 02:36:11;;;;;;;13.82;3.75;;;;;;;;;;2096748;28;20493;-79
2023/08/22 02:37:30;;;;;;;12.75;3.80;;;;;;;;;;2099380;28;20062;-79
2023/08/22 02:38:49;;;;;;;15.05;3.95;;;;;;;;;;2089842;28;20067;-78
2023/08/22 02:40:11;;;;;;;11.50;3.97;;;;;;;;;;2086592;28;20033;-78
2023/08/22 02:41:31;;;;;;;11.95;4.20;;;;;;;;;;2089871;28;20017;-78
2023/08/22 02:42:49;;;;;;;9.32;3.90;;;;;;;;;;2093757;28;20051;-78
2023/08/22 02:44:08;;;;;;;10.57;4.00;;;;;;;;;;2098838;28;20024;-78
2023/08/22 02:45:27;;;;;;;9.15;4.20;;;;;;;;;;2100113;28;20143;-79
2023/08/22 02:46:46;;;;;;;8.10;3.60;;;;;;;;;;2091722;28;20029;-79
2023/08/22 02:48:05;;;;;;;13.10;4.53;;;;;;;;;;2086443;28;20125;-79
2023/08/22 02:49:24;;;;;;;11.27;3.72;;;;;;;;;;2087282;28;20044;-80
2023/08/22 02:50:44;;;;;;;9.82;4.20;;;;;;;;;;2088724;28;20409;-78
2023/08/22 02:52:03;;;;;;;10.95;3.47;;;;;;;;;;2095879;28;20754;-79
2023/08/22 02:53:22;;;;;;;12.55;3.95;;;;;;;;;;2089209;28;20052;-79
2023/08/22 02:54:41;;;;;;;12.05;4.25;;;;;;;;;;2086330;28;20033;-78
2023/08/22 02:56:00;;;;;;;11.85;4.28;;;;;;;;;;2087054;28;20025;-78
2023/08/22 02:57:19;;;;;;;15.43;3.95;;;;;;;;;;2089708;28;20394;-79
2023/08/22 02:58:41;;;;;;;7.85;3.97;;;;;;;;;;2085765;28;20037;-78
2023/08/22 03:00:00;;;;;;;11.85;4.30;;;;;;;;;;2096423;28;20059;-78
2023/08/22 03:01:19;;;;;;;10.77;4.20;;;;;;;;;;2090905;28;20452;-78
2023/08/22 03:02:38;;;;;;;13.05;4.13;;;;;;;;;;2084579;28;20033;-80
2023/08/22 03:03:57;;;;;;;13.57;4.20;;;;;;;;;;2094558;28;20041;-78
2023/08/22 03:05:17;;;;;;;8.00;3.78;;;;;;;;;;2089100;28;20452;-80
2023/08/22 03:06:36;;;;;;;7.85;4.03;;;;;;;;;;2087354;28;20029;-78
2023/08/22 03:07:55;;;;;;;20.27;4.10;;;;;;;;;;2086619;28;20036;-79
2023/08/22 03:09:13;;;;;;;8.23;3.42;;;;;;;;;;2088500;28;20029;-80
2023/08/22 03:10:32;;;;;;;12.27;4.60;;;;;;;;;;2087457;28;20033;-79
2023/08/22 03:11:52;;;;;;;16.00;3.97;;;;;;;;;;2087695;28;20064;-79
2023/08/22 03:13:11;;;;;;;11.45;4.50;;;;;;;;;;2095015;28;20028;-78
2023/08/22 03:14:30;;;;;;;11.88;3.75;;;;;;;;;;2098341;28;20025;-78
2023/08/22 03:15:49;;;;;;;7.43;3.75;;;;;;;;;;2090846;28;20025;-78
2023/08/22 03:17:08;;;;;;;11.10;4.13;;;;;;;;;;2090351;28;20024;-78
2023/08/22 03:18:27;;;;;;;11.85;4.00;;;;;;;;;;2093935;28;20040;-79
2023/08/22 03:19:46;;;;;;;13.38;4.20;;;;;;;;;;2089522;28;20028;-77
2023/08/22 03:21:05;;;;;;;11.80;3.42;;;;;;;;;;2086070;28;20021;-79
2023/08/22 03:22:24;;;;;;;13.93;4.72;;;;;;;;;;2087627;28;20482;-81
2023/08/22 03:23:43;;;;;;;16.83;4.53;;;;;;;;;;2085225;28;20025;-79
2023/08/22 03:25:02;;;;;;;10.35;3.83;;;;;;;;;;2089751;28;20028;-79
2023/08/22 03:26:22;;;;;;;6.53;3.55;;;;;;;;;;2088099;28;20021;-78
2023/08/22 03:27:40;;;;;;;14.60;4.00;;;;;;;;;;2095306;28;20478;-80
2023/08/22 03:28:59;;;;;;;12.68;4.75;;;;;;;;;;2098688;28;20485;-79
2023/08/22 03:30:18;;;;;;;7.60;3.90;;;;;;;;;;2090260;28;20036;-79
2023/08/22 03:31:37;;;;;;;6.88;4.13;;;;;;;;;;2094759;28;20131;-78
2023/08/22 03:32:56;;;;;;;14.60;4.07;;;;;;;;;;2098169;28;20024;-78
2023/08/22 03:34:15;;;;;;;12.43;4.07;;;;;;;;;;2099222;28;20024;-78
2023/08/22 03:35:34;;;;;;;10.48;4.40;;;;;;;;;;2096445;28;20473;-78
2023/08/22 03:36:53;;;;;;;9.93;4.50;;;;;;;;;;2089091;28;20482;-79
2023/08/22 03:38:12;;;;;;;12.32;4.80;;;;;;;;;;2092874;28;20016;-79
2023/08/22 03:39:31;;;;;;;18.13;4.35;;;;;;;;;;2095787;28;20051;-79
2023/08/22 03:40:50;;;;;;;14.57;4.75;;;;;;;;;;2097496;28;20092;-80
2023/08/22 03:42:09;;;;;;;11.88;4.32;;;;;;;;;;2090978;28;20033;-78
2023/08/22 03:43:28;;;;;;;14.15;4.43;;;;;;;;;;2087246;28;20033;-78
2023/08/22 03:44:47;;;;;;;12.38;4.45;;;;;;;;;;2086731;28;20146;-80
2023/08/22 03:46:06;;;;;;;13.00;3.72;;;;;;;;;;2084693;28;20108;-79
2023/08/22 03:47:26;;;;;;;10.25;4.13;;;;;;;;;;2095284;28;20032;-79
2023/08/22 03:48:44;;;;;;;14.23;4.22;;;;;;;;;;2089015;28;20046;-79
2023/08/22 03:50:03;;;;;;;14.93;4.20;;;;;;;;;;2093817;28;20393;-79
2023/08/22 03:51:23;;;;;;;9.65;4.03;;;;;;;;;;2088446;28;20502;-79
2023/08/22 03:52:42;;;;;;;13.30;4.70;;;;;;;;;;2095585;28;20032;-80
2023/08/22 03:54:01;;;;;;;14.80;4.35;;;;;;;;;;2097251;28;20032;-78
2023/08/22 03:55:20;;;;;;;12.68;4.22;;;;;;;;;;2088853;28;20458;-80
2023/08/22 03:56:39;;;;;;;15.07;5.10;;;;;;;;;;2085190;28;20100;-79
2023/08/22 03:57:58;;;;;;;11.57;4.57;;;;;;;;;;2093854;28;20029;-79
2023/08/22 03:59:17;;;;;;;12.70;4.70;;;;;;;;;;2099810;28;20497;-79
2023/08/22 04:00:36;;;;;;;14.93;4.55;;;;;;;;;;2086391;28;20025;-79
2023/08/22 04:01:55;;;;;;;11.32;4.22;;;;;;;;;;2086056;28;20024;-80
2023/08/22 04:03:15;;;;;;;16.52;4.72;;;;;;;;;;2093711;28;20028;-79
2023/08/22 04:04:34;;;;;;;7.00;4.13;;;;;;;;;;2096429;28;20033;-80
2023/08/22 04:05:53;;;;;;;10.32;4.15;;;;;;;;;;2089629;28;20025;-79
2023/08/22 04:07:11;;;;;;;11.25;4.72;;;;;;;;;;2085806;28;20505;-78
2023/08/22 04:08:30;;;;;;;12.10;3.90;;;;;;;;;;2095433;28;20490;-79
2023/08/22 04:09:51;;;;;;;14.32;4.38;;;;;;;;;;2087704;28;20105;-81
2023/08/22 04:11:10;;;;;;;11.25;4.68;;;;;;;;;;2089664;28;20025;-79
2023/08/22 04:12:28;;;;;;;11.30;3.90;;;;;;;;;;2093280;28;20486;-79
2023/08/22 04:13:47;;;;;;;15.50;4.15;;;;;;;;;;2088672;28;20045;-79
2023/08/22 04:15:07;;;;;;;10.07;3.95;;;;;;;;;;2088136;28;20514;-78
2023/08/22 04:16:26;;;;;;;10.13;3.95;;;;;;;;;;2088427;28;20294;-77
2023/08/22 04:17:45;;;;;;;15.10;3.90;;;;;;;;;;2083050;28;20021;-78
2023/08/22 04:19:03;;;;;;;14.95;4.30;;;;;;;;;;2093001;28;20025;-79
2023/08/22 04:20:22;;;;;;;10.02;4.07;;;;;;;;;;2088686;28;20017;-78
2023/08/22 04:21:42;;;;;;;8.85;3.78;;;;;;;;;;2093979;28;20052;-78
2023/08/22 04:23:02;;;;;;;14.32;4.68;;;;;;;;;;2087957;28;20033;-80
2023/08/22 04:24:21;;;;;;;10.98;4.10;;;;;;;;;;2093610;28;20032;-78
2023/08/22 04:25:40;;;;;;;11.90;4.53;;;;;;;;;;2096717;28;20481;-79
2023/08/22 04:26:59;;;;;;;13.63;3.72;;;;;;;;;;2096838;28;21825;-82
2023/08/22 04:28:19;;;;;;;10.73;4.10;;;;;;;;;;2097624;28;20111;-82
2023/08/22 04:29:38;;;;;;;14.75;4.43;;;;;;;;;;2087871;28;20029;-81
2023/08/22 04:30:57;;;;;;;12.82;4.30;;;;;;;;;;2088459;28;20053;-77
2023/08/22 04:32:16;;;;;;;10.35;4.25;;;;;;;;;;2083615;28;20033;-80
2023/08/22 04:33:35;;;;;;;9.25;3.83;;;;;;;;;;2090321;28;20052;-83
2023/08/22 04:34:54;;;;;;;12.82;4.10;;;;;;;;;;2089774;28;20385;-83
2023/08/22 04:36:13;;;;;;;14.68;4.10;;;;;;;;;;2094017;28;20108;-81
2023/08/22 04:37:32;;;;;;;10.27;4.03;;;;;;;;;;2096007;28;20025;-84
2023/08/22 04:38:51;;;;;;;15.68;4.70;;;;;;;;;;2089065;28;21364;-80
2023/08/22 04:40:10;;;;;;;9.05;3.80;;;;;;;;;;2093481;28;20127;-81
2023/08/22 04:41:29;;;;;;;17.85;5.20;;;;;;;;;;2090720;28;20025;-83
2023/08/22 04:42:48;;;;;;;13.05;3.78;;;;;;;;;;2083823;28;20033;-82
2023/08/22 04:44:07;;;;;;;13.35;4.70;;;;;;;;;;2083228;28;20143;-80
2023/08/22 04:45:26;;;;;;;16.75;4.43;;;;;;;;;;2085864;28;20703;-81
2023/08/22 04:46:45;;;;;;;14.43;4.22;;;;;;;;;;2088271;28;20037;-82
2023/08/22 04:48:04;;;;;;;9.77;3.30;;;;;;;;;;2093770;28;20028;-83
2023/08/22 04:49:23;;;;;;;13.05;4.18;;;;;;;;;;2095440;28;20025;-82
2023/08/22 04:50:43;;;;;;;10.82;4.07;;;;;;;;;;2087041;28;20025;-81
2023/08/22 04:52:02;;;;;;;14.73;4.40;;;;;;;;;;2085622;28;20381;-81
2023/08/22 04:53:22;;;;;;;18.95;3.85;;;;;;;;;;2095290;28;20021;-80
2023/08/22 04:54:41;;;;;;;8.30;3.60;;;;;;;;;;2096976;28;20067;-80
2023/08/22 04:56:00;;;;;;;11.93;4.38;;;;;;;;;;2096220;28;20060;-80
2023/08/22 04:57:21;;;;;;;10.50;4.05;;;;;;;;;;2096424;28;20032;-80
2023/08/22 04:58:40;;;;;;;15.00;4.88;;;;;;;;;;2088123;28;20021;-80
2023/08/22 04:59:59;;;;;;;12.20;4.10;;;;;;;;;;2084673;28;20045;-79
2023/08/22 05:01:18;;;;;;;16.40;4.47;;;;;;;;;;2091548;28;20490;-82
2023/08/22 05:02:38;;;;;;;14.07;4.18;;;;;;;;;;2085833;28;20025;-82
2023/08/22 05:03:57;;;;;;;13.27;3.88;;;;;;;;;;2085022;28;20105;-81
2023/08/22 05:05:16;;;;;;;8.80;3.80;;;;;;;;;;2085569;28;20017;-81
2023/08/22 05:06:35;;;;;;;19.80;4.65;;;;;;;;;;2084277;28;20037;-80
2023/08/22 05:07:54;;;;;;;7.93;3.70;;;;;;;;;;2093334;28;20029;-81
2023/08/22 05:09:14;;;;;;;13.23;3.45;;;;;;;;;;2088137;28;20097;-83
2023/08/22 05:10:33;;;;;;;9.75;4.07;;;;;;;;;;2093754;28;20115;-81
2023/08/22 05:11:52;;;;;;;11.18;3.70;;;;;;;;;;2088017;28;20021;-82
2023/08/22 05:13:11;;;;;;;11.07;3.70;;;;;;;;;;2086007;28;20032;-82
2023/08/22 05:14:32;;;;;;;14.55;4.00;;;;;;;;;;2083848;28;20068;-80
2023/08/22 05:15:51;;;;;;;15.30;4.93;;;;;;;;;;2084363;28;20033;-79
2023/08/22 05:17:10;;;;;;;14.75;4.25;;;;;;;;;;2092234;28;20421;-82
2023/08/22 05:18:29;;;;;;;14.57;4.97;;;;;;;;;;2095532;28;20060;-80
2023/08/22 05:19:48;;;;;;;16.83;4.50;;;;;;;;;;2088307;28;20029;-80
2023/08/22 05:21:07;;;;;;;13.63;3.63;;;;;;;;;;2084871;28;20017;-80
2023/08/22 05:22:26;;;;;;;17.95;3.88;;;;;;;;;;2087967;28;20043;-80
2023/08/22 05:23:45;;;;;;;12.65;4.03;;;;;;;;;;2092229;28;20029;-80
2023/08/22 05:25:04;;;;;;;8.10;3.75;;;;;;;;;;2094655;28;20033;-80
2023/08/22 05:26:23;;;;;;;8.50;3.78;;;;;;;;;;2088310;28;20025;-79
2023/08/22 05:27:42;;;;;;;13.02;3.75;;;;;;;;;;2091375;28;20584;-83
2023/08/22 05:29:02;;;;;;;9.02;3.35;;;;;;;;;;2087800;28;20433;-78
2023/08/22 05:30:21;;;;;;;12.52;3.90;;;;;;;;;;2091498;28;20017;-81
2023/08/22 05:31:40;;;;;;;11.35;4.05;;;;;;;;;;2096614;28;20047;-83
2023/08/22 05:32:59;;;;;;;14.82;4.55;;;;;;;;;;2088104;28;20116;-84
2023/08/22 05:34:18;;;;;;;9.25;3.78;;;;;;;;;;2088870;28;20025;-85
2023/08/22 05:35:36;;;;;;;9.75;3.35;;;;;;;;;;2085739;28;20029;-86
2023/08/22 05:36:55;;;;;;;15.63;4.20;;;;;;;;;;2092980;28;20028;-85
2023/08/22 05:38:14;;;;;;;15.38;3.85;;;;;;;;;;2097476;28;20020;-84
2023/08/22 05:39:33;;;;;;;13.35;4.18;;;;;;;;;;2089500;28;20959;-87
2023/08/22 05:40:52;;;;;;;12.85;3.78;;;;;;;;;;2084946;28;20021;-83
2023/08/22 05:42:11;;;;;;;14.07;4.57;;;;;;;;;;2088988;28;20033;-81
2023/08/22 05:43:30;;;;;;;14.48;4.25;;;;;;;;;;2088817;28;20065;-81
2023/08/22 05:44:49;;;;;;;11.32;4.03;;;;;;;;;;2087868;28;20060;-85
2023/08/22 05:46:09;;;;;;;13.02;3.33;;;;;;;;;;2089927;28;20028;-83
2023/08/22 05:47:29;;;;;;;11.43;3.83;;;;;;;;;;2097661;28;20112;-85
2023/08/22 05:48:48;;;;;;;11.18;4.15;;;;;;;;;;2087773;28;20021;-87
2023/08/22 05:50:07;;;;;;;13.52;4.05;;;;;;;;;;2091837;28;20017;-85
2023/08/22 05:51:26;;;;;;;10.68;3.67;;;;;;;;;;2096482;28;20079;-85
2023/08/22 05:52:45;;;;;;;10.45;3.75;;;;;;;;;;2087213;28;20136;-83
2023/08/22 05:54:04;;;;;;;12.90;4.07;;;;;;;;;;2091659;28;20028;-83
2023/08/22 05:55:24;;;;;;;14.50;4.00;;;;;;;;;;2093182;28;20457;-84
2023/08/22 05:56:43;;;;;;;16.00;4.57;;;;;;;;;;2092288;28;20028;-83
2023/08/22 05:58:02;;;;;;;9.85;4.22;;;;;;;;;;2092892;28;20033;-82
2023/08/22 05:59:22;;;;;;;19.45;3.95;;;;;;;;;;2091547;28;20072;-84
2023/08/22 06:00:41;;;;;;;13.35;4.13;;;;;;;;;;2085911;28;20055;-84
2023/08/22 06:02:00;;;;;;;14.25;4.05;;;;;;;;;;2083798;28;20017;-79
2023/08/22 06:03:20;;;;;;;14.13;4.10;;;;;;;;;;2091578;28;20025;-81
2023/08/22 06:04:39;;;;;;;11.35;3.40;;;;;;;;;;2097564;28;20020;-80
2023/08/22 06:05:58;;;;;;;16.02;3.92;;;;;;;;;;2088991;28;20029;-80
2023/08/22 06:07:17;;;;;;;11.10;3.35;;;;;;;;;;2085915;28;20057;-81
2023/08/22 06:08:36;;;;;;;11.95;4.18;;;;;;;;;;2098410;28;20039;-81
2023/08/22 06:09:55;;;;;;;13.75;4.07;;;;;;;;;;2089115;28;20112;-80
2023/08/22 06:11:14;;;;;;;11.45;3.70;;;;;;;;;;2089037;28;20033;-80
2023/08/22 06:12:33;;;;;;;12.85;3.72;;;;;;;;;;2086120;28;20065;-82
2023/08/22 06:13:53;;;;;;;10.32;3.80;;;;;;;;;;2085083;28;20021;-81
2023/08/22 06:15:12;;;;;;;10.18;3.67;;;;;;;;;;2086573;28;20025;-80
2023/08/22 06:16:31;;;;;;;15.02;4.15;;;;;;;;;;2089114;28;20025;-80
2023/08/22 06:17:50;;;;;;;12.82;4.35;;;;;;;;;;2087996;28;20048;-80
2023/08/22 06:19:08;;;;;;;10.80;4.10;;;;;;;;;;2094052;28;20021;-80
2023/08/22 06:20:27;;;;;;;15.70;4.03;;;;;;;;;;2089649;28;20029;-80
2023/08/22 06:21:47;;;;;;;17.15;4.15;;;;;;;;;;2090386;28;20045;-80
2023/08/22 06:23:06;;;;;;;14.05;3.65;;;;;;;;;;2085981;28;20025;-80
2023/08/22 06:24:25;;;;;;;9.57;4.57;;;;;;;;;;2086936;28;20103;-80
2023/08/22 06:25:46;;;;;;;9.77;3.30;;;;;;;;;;2086466;28;20452;-80
2023/08/22 06:27:06;;;;;;;12.25;3.63;;;;;;;;;;2086943;28;20060;-80
2023/08/22 06:28:24;;;;;;;13.88;3.50;;;;;;;;;;2091202;28;20033;-80
2023/08/22 06:29:43;;;;;;;9.65;3.70;;;;;;;;;;2087949;28;20033;-79
2023/08/22 06:31:02;;;;;;;12.25;3.58;;;;;;;;;;2088968;28;20514;-79
2023/08/22 06:32:22;;;;;;;9.32;3.20;;;;;;;;;;2094764;28;20466;-79
2023/08/22 06:33:41;;;;;;;11.45;3.60;;;;;;;;;;2098747;28;20060;-80
2023/08/22 06:35:00;;;;;;;14.68;4.03;;;;;;;;;;2090501;28;20016;-80
2023/08/22 06:36:19;;;;;;;13.45;3.75;;;;;;;;;;2090388;28;20521;-80
2023/08/22 06:37:38;;;;;;;15.38;3.47;;;;;;;;;;2097323;28;20091;-80
2023/08/22 06:38:57;;;;;;;11.15;3.85;;;;;;;;;;2089135;28;20025;-79
2023/08/22 06:40:16;;;;;;;13.45;4.07;;;;;;;;;;2089132;28;20104;-81
2023/08/22 06:41:36;;;;;;;8.15;3.45;;;;;;;;;;2095316;28;20424;-80
2023/08/22 06:42:55;;;;;;;14.05;3.85;;;;;;;;;;2089969;28;20017;-81
2023/08/22 06:44:14;;;;;;;9.05;3.53;;;;;;;;;;2086019;28;20116;-79
2023/08/22 06:45:33;;;;;;;10.13;3.47;;;;;;;;;;2079096;28;20042;-80
2023/08/22 06:46:52;;;;;;;10.77;4.45;;;;;;;;;;2085613;28;20033;-80
2023/08/22 06:48:11;;;;;;;13.77;3.75;;;;;;;;;;2086724;28;20051;-80
2023/08/22 06:49:30;;;;;;;12.75;3.85;;;;;;;;;;2090761;28;20107;-80
2023/08/22 06:50:49;;;;;;;15.98;4.47;;;;;;;;;;2094913;28;20428;-78
2023/08/22 06:52:08;;;;;;;10.48;3.88;;;;;;;;;;2090170;28;20028;-80
2023/08/22 06:53:27;;;;;;;14.52;3.55;;;;;;;;;;2088515;28;20033;-79
2023/08/22 06:54:46;;;;;;;11.13;3.88;;;;;;;;;;2094526;28;20489;-79
2023/08/22 06:56:06;;;;;;;10.32;3.55;;;;;;;;;;2089413;28;20490;-80
2023/08/22 06:57:25;;;;;;;9.15;3.42;;;;;;;;;;2088861;28;20144;-78
2023/08/22 06:58:44;;;;;;;10.18;3.33;;;;;;;;;;2088753;28;20017;-79
2023/08/22 07:00:14;;;;;;;8.60;3.08;;;;;;;;;;2094642;28;20044;-80
2023/08/22 07:01:33;;;;;;;9.95;3.28;;;;;;;;;;2096960;28;20127;-79
2023/08/22 07:02:52;;;;;;;7.43;3.20;;;;;;;;;;2096994;28;20029;-80
2023/08/22 07:04:12;;;;;;;10.82;3.25;;;;;;;;;;2088484;28;20064;-82
2023/08/22 07:05:31;;;;;;;9.38;3.85;;;;;;;;;;2092960;28;20021;-80
2023/08/22 07:06:50;;;;;;;7.72;2.92;;;;;;;;;;2089258;28;20470;-79
2023/08/22 07:08:09;;;;;;;14.25;3.70;;;;;;;;;;2086633;28;20041;-78
2023/08/22 07:09:28;;;;;;;8.05;3.58;;;;;;;;;;2086113;28;20033;-78
2023/08/22 07:10:47;;;;;;;12.77;3.53;;;;;;;;;;2093750;28;20424;-80
2023/08/22 07:12:06;;;;;;;10.10;3.35;;;;;;;;;;2098800;28;20024;-80
2023/08/22 07:13:25;;;;;;;8.15;3.40;;;;;;;;;;2098226;28;20028;-79
2023/08/22 07:14:44;;;;;;;10.68;3.40;;;;;;;;;;2096394;28;20040;-79
2023/08/22 07:16:04;;;;;;;11.55;4.15;;;;;;;;;;2098691;28;20424;-80
2023/08/22 07:17:23;;;;;;;12.85;3.38;;;;;;;;;;2087916;28;20025;-80
2023/08/22 07:18:42;;;;;;;10.57;3.60;;;;;;;;;;2087295;28;20021;-81
2023/08/22 07:20:01;;;;;;;10.13;3.35;;;;;;;;;;2085461;28;20040;-80
2023/08/22 07:21:20;;;;;;;9.35;3.25;;;;;;;;;;2085983;28;20017;-80
2023/08/22 07:22:39;;;;;;;10.98;3.75;;;;;;;;;;2094039;28;20021;-81
2023/08/22 07:23:58;;;;;;;11.50;3.55;;;;;;;;;;2089421;28;20032;-82
2023/08/22 07:25:17;;;;;;;15.55;4.05;;;;;;;;;;2085296;28;20025;-80
2023/08/22 07:26:36;;;;;;;11.25;4.03;;;;;;;;;;2095260;28;20033;-80
2023/08/22 07:27:56;;;;;;;23.90;4.75;;;;;;;;;;2089478;28;20017;-81
2023/08/22 07:29:15;;;;;;;9.70;3.30;;;;;;;;;;2085147;28;20017;-79
2023/08/22 07:30:34;;;;;;;9.95;4.38;;;;;;;;;;2095281;28;20401;-79
2023/08/22 07:31:58;;;;;;;8.57;3.38;;;;;;;;;;2098501;28;20028;-79
2023/08/22 07:33:17;;;;;;;9.90;3.83;;;;;;;;;;2089388;28;20029;-79
2023/08/22 07:34:35;;;;;;;9.55;3.80;;;;;;;;;;2094197;28;20871;-79
2023/08/22 07:35:55;;;;;;;12.50;3.58;;;;;;;;;;2087785;28;20021;-80
2023/08/22 07:37:16;;;;;;;7.45;3.03;;;;;;;;;;2093140;28;20338;-80
2023/08/22 07:38:34;;;;;;;10.05;3.38;;;;;;;;;;2098359;28;20405;-80
2023/08/22 07:39:54;;;;;;;10.10;3.45;;;;;;;;;;2089858;28;20477;-80
2023/08/22 07:41:13;;;;;;;9.25;3.25;;;;;;;;;;2081304;28;20030;-80
2023/08/22 07:42:34;;;;;;;12.95;3.50;;;;;;;;;;2082930;28;20028;-81
2023/08/22 07:43:53;;;;;;;7.53;2.88;;;;;;;;;;2087468;28;20028;-80
2023/08/22 07:45:14;;;;;;;9.02;3.10;;;;;;;;;;2085741;28;20064;-80
2023/08/22 07:46:32;;;;;;;11.55;3.25;;;;;;;;;;2085961;28;20441;-80
2023/08/22 07:47:51;;;;;;;12.90;4.00;;;;;;;;;;2091732;28;20025;-82
2023/08/22 07:49:10;;;;;;;10.82;3.85;;;;;;;;;;2088099;28;20572;-80
2023/08/22 07:50:30;;;;;;;21.08;3.63;;;;;;;;;;2086317;28;20410;-80
2023/08/22 07:51:49;;;;;;;8.57;3.08;;;;;;;;;;2086036;28;20029;-81